Time;durP1;ratioP1;P1;durP2;ratioP2;P2;SDS_P1;SDS_P2;PMS_P1;PMS_P2;Temp;Humidity;BMP_temperature;BMP_pressure;BME280_temperature;BME280_humidity;BME280_pressure;Samples;Min_cycle;Max_cycle;Signal;HPM_P1;HPM_P2
2022/01/05 00:01:50;;;;;;;;;1.25;1.00;;;;;9.24;64.58;100456.13;5043254;28;61849;-76
2022/01/05 00:04:16;;;;;;;;;2.00;2.00;;;;;9.26;64.71;100467.56;5043441;28;62022;-75
2022/01/05 00:06:41;;;;;;;;;2.25;1.00;;;;;9.19;64.08;100474.25;5042775;28;61855;-76
2022/01/05 00:09:06;;;;;;;;;1.25;1.00;;;;;9.13;64.13;100473.97;5041864;28;62267;-76
2022/01/05 00:11:32;;;;;;;;;1.00;1.00;;;;;9.24;64.30;100477.06;5042326;28;62106;-76
2022/01/05 00:13:58;;;;;;;;;1.00;1.00;;;;;9.21;64.12;100483.06;5043154;28;62433;-75
2022/01/05 00:16:23;;;;;;;;;1.50;0.50;;;;;9.19;63.33;100482.09;5042978;28;61853;-76
2022/01/05 00:18:49;;;;;;;;;2.75;2.75;;;;;9.23;63.69;100484.84;5043155;28;61855;-75
2022/01/05 00:21:14;;;;;;;;;2.00;1.00;;;;;9.23;63.11;100483.13;5043332;28;62344;-76
2022/01/05 00:23:40;;;;;;;;;0.00;0.00;;;;;9.12;62.92;100481.75;5043162;28;61982;-75
2022/01/05 00:26:05;;;;;;;;;4.25;1.75;;;;;9.17;62.68;100485.47;5041897;28;62904;-75
2022/01/05 00:28:31;;;;;;;;;8.75;2.25;;;;;9.08;62.44;100478.06;5042422;28;61882;-75
2022/01/05 00:30:57;;;;;;;;;2.00;1.00;;;;;9.05;62.54;100485.81;5043161;28;61769;-76
2022/01/05 00:33:22;;;;;;;;;2.25;1.00;;;;;9.09;62.96;100486.84;5054925;28;62097;-75
2022/01/05 00:35:48;;;;;;;;;4.00;2.00;;;;;8.99;62.48;100477.66;5062430;28;61919;-75
2022/01/05 00:38:13;;;;;;;;;5.75;1.00;;;;;9.01;62.85;100482.16;5061547;28;62105;-75
2022/01/05 00:40:38;;;;;;;;;0.00;0.00;;;;;8.84;62.57;100488.31;5062892;28;61858;-75
2022/01/05 00:43:04;;;;;;;;;4.50;0.25;;;;;8.89;62.69;100489.47;5077995;28;61895;-75
2022/01/05 00:45:29;;;;;;;;;4.00;1.50;;;;;8.91;63.04;100497.34;5062173;28;62672;-75
2022/01/05 00:47:55;;;;;;;;;1.00;1.00;;;;;8.87;63.29;100488.50;5062666;28;61839;-75
2022/01/05 00:50:20;;;;;;;;;1.00;1.00;;;;;8.91;63.34;100498.28;5062799;28;61694;-75
2022/01/05 00:52:46;;;;;;;;;2.00;1.00;;;;;8.90;62.84;100498.19;5063150;28;61837;-75
2022/01/05 00:55:11;;;;;;;;;1.00;1.00;;;;;8.71;62.62;100501.66;5061786;28;62498;-75
2022/01/05 00:57:36;;;;;;;;;7.50;0.25;;;;;8.84;63.21;100503.16;5077702;28;61913;-75
2022/01/05 01:00:06;;;;;;;;;3.00;1.50;;;;;8.82;62.53;100513.53;5062735;28;61776;-75
2022/01/05 01:02:31;;;;;;;;;3.25;1.00;;;;;8.87;63.03;100521.59;5062360;28;62047;-75
2022/01/05 01:04:56;;;;;;;;;3.50;2.00;;;;;8.87;63.52;100511.13;5061914;28;61806;-75
2022/01/05 01:07:22;;;;;;;;;2.50;2.50;;;;;9.01;63.96;100512.66;5062143;28;61942;-75
2022/01/05 01:09:48;;;;;;;;;4.75;2.00;;;;;9.07;64.11;100515.56;5078241;27;61830;-75
2022/01/05 01:12:14;;;;;;;;;1.50;1.50;;;;;9.12;64.63;100521.00;5077768;27;61931;-75
2022/01/05 01:14:39;;;;;;;;;0.75;0.75;;;;;9.13;64.01;100517.59;5061740;28;62990;-75
2022/01/05 01:17:05;;;;;;;;;8.00;2.00;;;;;9.10;64.26;100522.66;5062512;28;61840;-75
2022/01/05 01:19:30;;;;;;;;;2.00;1.00;;;;;9.11;64.45;100524.47;5062012;28;61772;-75
2022/01/05 01:21:57;;;;;;;;;2.00;2.00;;;;;9.11;63.75;100534.94;5078090;28;61858;-75
2022/01/05 01:24:23;;;;;;;;;1.00;1.00;;;;;9.12;64.40;100540.22;5061681;28;62081;-76
2022/01/05 01:26:48;;;;;;;;;2.75;1.50;;;;;8.98;63.87;100543.97;5077133;28;61879;-75
2022/01/05 01:29:14;;;;;;;;;6.00;2.00;;;;;8.92;64.08;100552.41;5062113;28;61837;-75
2022/01/05 01:31:39;;;;;;;;;2.50;2.00;;;;;8.94;64.76;100555.09;5062327;28;61781;-75
2022/01/05 01:34:05;;;;;;;;;4.00;1.50;;;;;8.86;64.08;100565.19;5061226;28;62391;-76
2022/01/05 01:36:30;;;;;;;;;4.25;1.50;;;;;8.81;63.92;100564.09;5061803;28;62010;-75
2022/01/05 01:38:56;;;;;;;;;2.50;1.75;;;;;8.82;63.99;100565.88;5061871;28;61865;-75
2022/01/05 01:41:21;;;;;;;;;4.00;1.00;;;;;8.88;64.44;100573.13;5060570;28;62093;-75
2022/01/05 01:43:46;;;;;;;;;6.75;2.00;;;;;8.88;64.38;100573.13;5059765;28;63700;-75
2022/01/05 01:46:12;;;;;;;;;6.75;1.00;;;;;8.93;64.16;100574.25;5061788;28;61880;-75
2022/01/05 01:48:37;;;;;;;;;4.00;1.00;;;;;8.95;64.50;100586.56;5061758;28;61664;-75
2022/01/05 01:51:03;;;;;;;;;4.25;1.00;;;;;8.94;64.50;100583.91;5060699;28;62134;-75
2022/01/05 01:53:29;;;;;;;;;4.50;2.00;;;;;8.95;63.72;100586.56;5061104;28;61957;-75
2022/01/05 01:55:58;;;;;;;;;8.00;1.00;;;;;8.96;63.62;100585.75;5059935;28;61754;-75
2022/01/05 01:58:30;;;;;;;;;1.75;1.75;;;;;8.93;63.06;100592.56;5060631;28;61971;-75
2022/01/05 02:00:56;;;;;;;;;8.00;1.50;;;;;8.86;63.24;100595.72;5062068;28;62109;-75
2022/01/05 02:03:21;;;;;;;;;1.00;1.00;;;;;8.81;63.59;100600.72;5061021;28;62360;-75
2022/01/05 02:05:47;;;;;;;;;1.75;1.00;;;;;8.75;63.40;100610.91;5061685;28;61778;-75
2022/01/05 02:08:13;;;;;;;;;7.75;2.00;;;;;8.77;63.78;100618.00;5043668;28;61970;-75
2022/01/05 02:10:39;;;;;;;;;4.75;1.50;;;;;8.75;62.78;100618.75;5060103;28;61907;-75
2022/01/05 02:13:05;;;;;;;;;6.00;2.00;;;;;8.73;63.39;100620.41;5059465;28;63960;-76
2022/01/05 02:15:30;;;;;;;;;1.50;1.00;;;;;8.64;62.87;100620.84;5061474;28;61710;-75
2022/01/05 02:20:28;;;;;;;;;1.00;0.50;;;;;8.67;63.52;100638.41;5062011;28;61890;-75
2022/01/05 02:22:54;;;;;;;;;4.75;1.00;;;;;8.67;62.79;100633.16;5060641;28;62629;-75
2022/01/05 02:25:20;;;;;;;;;1.50;0.75;;;;;8.66;62.05;100636.63;5061179;28;62173;-75
2022/01/05 02:27:48;;;;;;;;;0.50;0.50;;;;;8.49;61.82;100634.06;5059682;28;61991;-75
2022/01/05 02:30:18;;;;;;;;;1.00;0.00;;;;;8.50;62.33;100634.94;5061673;28;61960;-75
2022/01/05 02:32:44;;;;;;;;;3.25;0.75;;;;;8.53;62.88;100640.34;5055029;28;64184;-75
2022/01/05 02:35:10;;;;;;;;;5.00;2.00;;;;;8.48;62.45;100628.75;5040116;28;62026;-75
2022/01/05 02:37:50;;;;;;;;;4.00;2.00;;;;;8.59;62.78;100638.94;5041181;28;61865;-76
2022/01/05 02:40:17;;;;;;;;;2.00;1.00;;;;;8.60;63.09;100635.47;5041290;28;62039;-75
2022/01/05 02:42:43;;;;;;;;;1.75;1.00;;;;;8.59;62.79;100638.94;5040182;28;61955;-75
2022/01/05 02:45:10;;;;;;;;;4.50;1.50;;;;;8.44;62.71;100640.78;5041014;28;62246;-75
2022/01/05 02:47:36;;;;;;;;;2.50;1.00;;;;;8.52;62.77;100638.53;5041190;28;61833;-75
2022/01/05 02:50:03;;;;;;;;;3.00;1.50;;;;;8.50;62.67;100645.41;5040985;28;61707;-75
2022/01/05 02:52:29;;;;;;;;;5.00;1.50;;;;;8.34;61.94;100639.38;5040506;28;62136;-75
2022/01/05 02:54:54;;;;;;;;;4.00;1.00;;;;;8.37;62.67;100643.84;5040600;28;61763;-75
2022/01/05 02:57:19;;;;;;;;;4.25;2.00;;;;;8.32;62.18;100645.34;5040406;28;61822;-75
2022/01/05 02:59:45;;;;;;;;;3.50;2.00;;;;;8.24;62.54;100660.63;5041015;28;61874;-75
2022/01/05 03:02:11;;;;;;;;;4.25;1.00;;;;;8.23;62.57;100658.84;5040215;28;63373;-75
2022/01/05 03:04:36;;;;;;;;;0.50;0.50;;;;;8.16;62.81;100667.19;5044363;28;61972;-75
2022/01/05 03:07:02;;;;;;;;;8.25;4.00;;;;;8.16;62.18;100665.50;5044041;28;62088;-75
2022/01/05 03:09:27;;;;;;;;;4.50;3.50;;;;;8.13;63.02;100667.94;5044073;28;61945;-75
2022/01/05 03:11:53;;;;;;;;;4.75;1.25;;;;;8.08;63.05;100666.81;5043601;28;61735;-75
2022/01/05 03:14:20;;;;;;;;;4.00;1.75;;;;;8.08;62.74;100668.53;5042573;28;61925;-75
2022/01/05 03:16:45;;;;;;;;;2.00;2.00;;;;;8.03;62.83;100672.59;5044212;28;62019;-75
2022/01/05 03:19:10;;;;;;;;;5.00;1.00;;;;;8.06;62.99;100678.00;5044208;28;61702;-75
2022/01/05 03:21:36;;;;;;;;;4.25;2.00;;;;;8.02;63.68;100678.66;5043595;28;62685;-75
2022/01/05 03:24:01;;;;;;;;;5.00;1.00;;;;;8.06;63.08;100681.50;5043413;28;62178;-75
2022/01/05 03:26:27;;;;;;;;;4.50;1.50;;;;;7.96;62.86;100687.06;5042621;28;61963;-75
2022/01/05 03:28:52;;;;;;;;;1.00;1.00;;;;;8.04;62.87;100690.97;5043752;28;61965;-75
2022/01/05 03:31:17;;;;;;;;;2.50;1.25;;;;;8.05;62.90;100689.25;5043082;28;61764;-75
2022/01/05 03:33:43;;;;;;;;;1.00;1.00;;;;;8.01;63.08;100695.13;5058879;28;61881;-75
2022/01/05 03:36:09;;;;;;;;;3.00;1.00;;;;;8.02;63.20;100704.78;5064023;28;61868;-75
2022/01/05 03:38:34;;;;;;;;;3.50;1.75;;;;;7.95;62.77;100709.69;5063765;28;61906;-75
2022/01/05 03:41:00;;;;;;;;;9.25;2.00;;;;;7.95;63.47;100707.06;5062999;28;61705;-75
2022/01/05 03:43:25;;;;;;;;;2.00;1.00;;;;;7.92;63.06;100701.66;5063496;28;61975;-76
2022/01/05 03:45:51;;;;;;;;;2.75;1.75;;;;;7.92;63.42;100706.00;5063992;28;61877;-75
2022/01/05 03:48:18;;;;;;;;;2.00;2.00;;;;;7.96;62.82;100714.09;5063786;28;61848;-75
2022/01/05 03:50:44;;;;;;;;;0.75;0.50;;;;;7.93;62.93;100729.63;5063057;28;61883;-75
2022/01/05 03:53:11;;;;;;;;;4.00;3.50;;;;;7.95;63.09;100725.38;5063175;28;62051;-75
2022/01/05 03:55:38;;;;;;;;;3.75;1.00;;;;;7.89;63.14;100730.25;5079128;27;61952;-75
2022/01/05 03:58:04;;;;;;;;;2.00;2.00;;;;;7.85;63.85;100727.41;5063482;28;61774;-75
2022/01/05 04:00:31;;;;;;;;;4.25;1.25;;;;;7.90;63.49;100741.59;5062987;28;61688;-75
2022/01/05 04:02:58;;;;;;;;;6.00;2.00;;;;;7.91;63.19;100733.84;5079080;28;61795;-75
2022/01/05 04:05:24;;;;;;;;;3.50;1.75;;;;;7.96;63.92;100739.31;5063463;28;61788;-75
2022/01/05 04:07:52;;;;;;;;;1.00;1.00;;;;;7.96;63.59;100731.50;5079295;27;62204;-75
2022/01/05 04:10:18;;;;;;;;;4.75;2.00;;;;;7.93;63.76;100737.44;5062545;28;61895;-75
2022/01/05 04:12:44;;;;;;;;;1.00;1.00;;;;;7.96;63.84;100737.59;5062718;28;61687;-75
2022/01/05 04:15:10;;;;;;;;;2.00;2.00;;;;;7.97;63.44;100733.31;5062593;28;61929;-76
2022/01/05 04:17:35;;;;;;;;;2.50;1.00;;;;;7.98;63.32;100743.81;5078805;28;62047;-75
2022/01/05 04:20:02;;;;;;;;;2.00;1.00;;;;;8.08;63.84;100741.72;5062857;28;61856;-75
2022/01/05 04:22:27;;;;;;;;;0.00;0.00;;;;;8.10;63.90;100742.69;5062978;28;62137;-75
2022/01/05 04:24:53;;;;;;;;;0.75;0.75;;;;;8.17;63.76;100750.03;5063393;28;61817;-75
2022/01/05 04:27:19;;;;;;;;;5.50;0.75;;;;;8.21;64.05;100749.38;5062885;28;61813;-75
2022/01/05 04:29:44;;;;;;;;;4.25;1.75;;;;;8.21;63.81;100754.63;5062193;28;62752;-75
2022/01/05 04:32:10;;;;;;;;;2.25;1.00;;;;;8.21;63.79;100752.00;5061215;28;61870;-75
2022/01/05 04:34:36;;;;;;;;;1.00;1.00;;;;;8.21;63.42;100753.72;5061255;28;61884;-75
2022/01/05 04:37:02;;;;;;;;;2.75;1.00;;;;;8.21;63.39;100754.63;5062819;28;61778;-75
2022/01/05 04:39:27;;;;;;;;;4.75;2.00;;;;;8.21;63.54;100762.47;5061712;28;61777;-75
2022/01/05 04:41:52;;;;;;;;;4.50;1.25;;;;;8.17;63.65;100765.72;5063088;28;61790;-75
2022/01/05 04:44:18;;;;;;;;;6.50;2.00;;;;;8.14;63.69;100758.63;5077778;28;61895;-75
2022/01/05 04:46:43;;;;;;;;;1.75;1.75;;;;;8.18;64.46;100771.06;5063091;28;61822;-75
2022/01/05 04:49:09;;;;;;;;;4.50;1.50;;;;;8.04;63.61;100768.50;5062108;28;62776;-75
2022/01/05 04:51:35;;;;;;;;;4.25;2.50;;;;;8.15;63.61;100773.47;5062254;28;61975;-75
2022/01/05 04:54:00;;;;;;;;;1.50;1.50;;;;;8.14;64.60;100782.16;5062797;28;62006;-75
2022/01/05 04:56:26;;;;;;;;;2.50;1.25;;;;;8.12;63.92;100772.41;5062442;28;61777;-75
2022/01/05 04:58:51;;;;;;;;;8.50;1.00;;;;;8.10;64.00;100780.19;5077399;28;63659;-75
2022/01/05 05:01:16;;;;;;;;;4.00;0.00;;;;;8.15;63.86;100788.28;5077792;28;61816;-75
2022/01/05 05:03:42;;;;;;;;;4.00;3.50;;;;;8.14;64.34;100795.22;5062627;28;61803;-75
2022/01/05 05:06:07;;;;;;;;;2.00;1.00;;;;;8.12;64.44;100786.41;5062718;28;61781;-76
2022/01/05 05:08:35;;;;;;;;;3.00;1.00;;;;;8.15;64.34;100786.56;5061914;28;61849;-74
2022/01/05 05:11:00;;;;;;;;;4.00;2.00;;;;;8.17;64.25;100795.38;5062590;28;61888;-74
2022/01/05 05:13:26;;;;;;;;;3.00;2.00;;;;;8.24;64.28;100793.09;5062095;28;61777;-74
2022/01/05 05:15:51;;;;;;;;;3.50;1.00;;;;;8.29;64.76;100804.69;5062901;28;61930;-74
2022/01/05 05:18:17;;;;;;;;;1.00;1.00;;;;;8.31;64.49;100809.22;5077461;28;63771;-74
2022/01/05 05:20:42;;;;;;;;;4.00;2.00;;;;;8.24;63.32;100811.41;5062222;28;61777;-75
2022/01/05 05:23:07;;;;;;;;;3.00;1.00;;;;;8.15;63.80;100819.66;5062579;28;62041;-74
2022/01/05 05:25:33;;;;;;;;;5.00;1.50;;;;;8.21;64.13;100822.59;5077241;27;61737;-74
2022/01/05 05:27:59;;;;;;;;;4.25;1.00;;;;;8.28;64.94;100818.59;5061623;28;61831;-74
2022/01/05 05:30:24;;;;;;;;;4.00;1.00;;;;;8.36;64.61;100825.16;5062388;28;61926;-74
2022/01/05 05:32:50;;;;;;;;;3.50;1.75;;;;;8.36;64.25;100825.16;5060403;28;62072;-73
2022/01/05 05:35:16;;;;;;;;;6.00;1.50;;;;;8.31;64.09;100826.59;5077952;27;61921;-74
2022/01/05 05:37:41;;;;;;;;;2.00;1.00;;;;;8.24;63.58;100837.56;5061377;28;61866;-74
2022/01/05 05:40:07;;;;;;;;;2.50;1.75;;;;;8.11;64.39;100842.09;5061942;28;61932;-74
2022/01/05 05:42:32;;;;;;;;;3.50;3.00;;;;;8.11;64.92;100843.81;5061999;28;61928;-74
2022/01/05 05:44:58;;;;;;;;;4.25;2.00;;;;;8.11;64.64;100841.22;5062498;28;61942;-74
2022/01/05 05:47:23;;;;;;;;;1.50;1.50;;;;;8.11;64.29;100849.94;5061484;28;62142;-73
2022/01/05 05:49:49;;;;;;;;;1.25;1.00;;;;;8.12;65.18;100859.59;5061697;28;61850;-74
2022/01/05 05:52:15;;;;;;;;;2.00;2.00;;;;;8.14;65.45;100849.22;5062077;28;61876;-75
2022/01/05 05:54:41;;;;;;;;;6.25;4.25;;;;;8.17;65.67;100849.41;5061983;28;61973;-74
2022/01/05 05:57:06;;;;;;;;;2.00;1.00;;;;;8.22;65.12;100852.25;5061151;28;62636;-74
2022/01/05 05:59:32;;;;;;;;;3.00;1.25;;;;;8.20;65.61;100849.56;5061976;28;62138;-75
2022/01/05 06:01:57;;;;;;;;;3.50;2.50;;;;;8.21;64.94;100845.25;5061434;28;61996;-74
2022/01/05 06:04:23;;;;;;;;;0.75;0.75;;;;;8.18;64.90;100846.88;5062268;28;61790;-74
2022/01/05 06:06:48;;;;;;;;;6.75;1.25;;;;;8.19;65.05;100858.22;5060900;28;62066;-74
2022/01/05 06:09:14;;;;;;;;;2.00;0.75;;;;;8.07;64.84;100861.03;5061891;28;62011;-74
2022/01/05 06:11:39;;;;;;;;;2.00;2.00;;;;;8.04;64.59;100868.72;5061655;28;61759;-74
2022/01/05 06:14:05;;;;;;;;;1.00;1.00;;;;;8.11;65.44;100880.44;5061620;28;61735;-73
2022/01/05 06:16:30;;;;;;;;;3.00;3.00;;;;;8.09;64.94;100879.44;5061421;28;62758;-73
2022/01/05 06:18:56;;;;;;;;;2.00;2.00;;;;;8.02;65.10;100888.66;5061033;28;61857;-74
2022/01/05 06:21:21;;;;;;;;;5.75;2.00;;;;;7.97;65.14;100896.25;5061669;28;61836;-73
2022/01/05 06:23:46;;;;;;;;;5.00;4.00;;;;;7.98;65.49;100890.19;5061727;28;61785;-73
2022/01/05 06:26:12;;;;;;;;;3.00;2.00;;;;;7.95;64.78;100884.81;5060954;28;61718;-74
2022/01/05 06:28:37;;;;;;;;;8.50;3.50;;;;;7.95;65.31;100886.53;5076504;28;61834;-74
2022/01/05 06:31:03;;;;;;;;;6.50;4.50;;;;;8.02;66.15;100883.44;5071182;27;61931;-75
2022/01/05 06:33:28;;;;;;;;;5.00;3.50;;;;;8.09;65.87;100890.78;5060902;28;61954;-76
2022/01/05 06:35:54;;;;;;;;;3.00;1.50;;;;;8.05;65.29;100903.59;5059455;28;63759;-76
2022/01/05 06:38:19;;;;;;;;;2.00;2.00;;;;;8.01;66.32;100901.63;5061918;28;61855;-82
2022/01/05 06:40:45;;;;;;;;;6.00;2.00;;;;;8.03;65.97;100905.22;5058500;28;61795;-76
2022/01/05 06:43:10;;;;;;;;;1.00;1.00;;;;;8.04;66.29;100892.25;5063366;28;62164;-76
2022/01/05 06:45:37;;;;;;;;;1.50;1.50;;;;;8.05;66.13;100903.59;5063784;28;63227;-78
2022/01/05 06:48:04;;;;;;;;;2.50;1.25;;;;;8.07;66.64;100908.09;5064138;28;61691;-77
2022/01/05 06:50:30;;;;;;;;;2.00;1.00;;;;;8.04;66.09;100914.91;5064429;28;61813;-77
2022/01/05 06:52:55;;;;;;;;;0.75;0.75;;;;;8.04;66.18;100912.28;5062972;28;62058;-77
2022/01/05 06:55:22;;;;;;;;;1.00;1.00;;;;;8.07;66.43;100908.09;5061882;28;63666;-77
2022/01/05 06:57:48;;;;;;;;;4.25;1.25;;;;;8.05;66.42;100903.59;5064125;28;62243;-77
2022/01/05 07:00:14;;;;;;;;;5.75;3.50;;;;;8.05;66.08;100917.56;5063944;28;61969;-78
2022/01/05 07:02:40;;;;;;;;;5.25;2.50;;;;;7.98;66.10;100918.03;5063098;27;62018;-77
2022/01/05 07:05:06;;;;;;;;;9.00;2.00;;;;;7.96;66.24;100917.94;5062481;28;65338;-79
2022/01/05 07:07:32;;;;;;;;;2.00;0.75;;;;;7.91;66.08;100923.75;5064451;28;61817;-77
2022/01/05 07:09:58;;;;;;;;;1.00;1.00;;;;;7.86;66.48;100920.88;5064190;28;61656;-77
2022/01/05 07:12:23;;;;;;;;;1.00;1.00;;;;;7.84;65.82;100929.41;5064788;28;61777;-79
2022/01/05 07:14:49;;;;;;;;;1.00;1.00;;;;;7.78;66.25;100933.50;5061325;28;64571;-79
2022/01/05 07:17:14;;;;;;;;;4.00;1.75;;;;;7.77;66.35;100936.91;5064014;28;61789;-79
2022/01/05 07:19:40;;;;;;;;;1.50;0.50;;;;;7.78;66.43;100927.38;5079989;27;62309;-80
2022/01/05 07:22:05;;;;;;;;;4.25;1.00;;;;;7.77;66.49;100938.63;5062661;28;62015;-79
2022/01/05 07:24:31;;;;;;;;;0.25;0.25;;;;;7.77;66.86;100941.22;5052355;28;62034;-80
2022/01/05 07:26:56;;;;;;;;;1.00;1.00;;;;;7.76;66.21;100950.78;5049578;28;61790;-76
2022/01/05 07:29:22;;;;;;;;;1.50;1.00;;;;;7.79;66.27;100950.06;5054740;28;62049;-79
2022/01/05 07:31:52;;;;;;;;;7.50;1.00;;;;;7.83;66.59;100954.66;5061886;28;62483;-78
2022/01/05 07:34:18;;;;;;;;;2.50;2.00;;;;;7.77;66.58;100962.13;5047983;28;61954;-79
2022/01/05 07:36:44;;;;;;;;;2.00;1.00;;;;;7.76;66.84;100960.34;5068893;28;62006;-79
2022/01/05 07:39:09;;;;;;;;;6.50;1.75;;;;;7.73;66.54;100974.13;5064134;27;61968;-80
2022/01/05 07:41:37;;;;;;;;;4.00;2.00;;;;;7.72;66.46;100961.88;5043738;28;61933;-80
2022/01/05 07:44:04;;;;;;;;;0.75;0.75;;;;;7.86;66.70;100973.16;5057694;28;64967;-75
2022/01/05 07:46:29;;;;;;;;;4.00;4.00;;;;;7.91;66.36;100976.03;5042625;28;61876;-76
2022/01/05 07:48:56;;;;;;;;;1.00;0.50;;;;;8.01;66.68;100972.19;5041598;28;61927;-76
2022/01/05 07:51:22;;;;;;;;;0.00;0.00;;;;;8.06;65.82;100976.00;5042239;28;61787;-76
2022/01/05 07:53:47;;;;;;;;;1.75;1.00;;;;;8.06;66.05;100982.13;5042745;28;61921;-76
2022/01/05 07:56:13;;;;;;;;;4.25;2.00;;;;;8.07;66.00;100977.78;5042460;28;62066;-76
2022/01/05 07:58:38;;;;;;;;;4.75;2.00;;;;;8.01;65.89;100974.81;5041801;28;61833;-74
2022/01/05 08:01:04;;;;;;;;;4.00;2.00;;;;;7.99;66.32;100980.88;5054880;28;61938;-77
2022/01/05 08:03:33;;;;;;;;;4.25;2.00;;;;;7.93;66.02;100984.84;5058018;28;65126;-77
2022/01/05 08:06:00;;;;;;;;;4.25;1.00;;;;;7.97;66.07;100987.72;5057628;28;61866;-77
2022/01/05 08:08:26;;;;;;;;;4.25;1.75;;;;;8.00;66.53;100997.44;5054991;28;61888;-77
2022/01/05 08:10:51;;;;;;;;;1.75;1.75;;;;;8.00;66.43;101000.06;5054097;28;61835;-77
2022/01/05 08:13:17;;;;;;;;;1.00;1.00;;;;;7.95;66.54;101007.66;5051099;28;62158;-77
2022/01/05 08:15:42;;;;;;;;;1.00;1.00;;;;;8.01;65.94;101008.81;5052902;28;62108;-77
2022/01/05 08:18:08;;;;;;;;;1.75;1.75;;;;;8.00;66.60;101013.13;5069416;28;62572;-77
2022/01/05 08:20:33;;;;;;;;;1.25;1.25;;;;;7.96;65.98;101014.66;5069563;28;61938;-76
2022/01/05 08:22:58;;;;;;;;;1.75;1.00;;;;;7.92;66.49;101015.28;5059690;28;62741;-77
2022/01/05 08:25:24;;;;;;;;;5.00;2.00;;;;;7.96;66.25;101022.50;5062609;28;62635;-77
2022/01/05 08:27:49;;;;;;;;;5.00;2.00;;;;;7.98;66.37;101027.81;5062530;28;62282;-76
2022/01/05 08:30:26;;;;;;;;;1.50;1.50;;;;;8.05;66.88;101031.69;5063080;28;61768;-77
2022/01/05 08:32:53;;;;;;;;;2.50;2.50;;;;;8.05;66.62;101029.09;5062347;28;61859;-76
2022/01/05 08:35:22;;;;;;;;;3.00;1.50;;;;;8.07;66.18;101027.47;5078461;27;61824;-76
2022/01/05 08:37:48;;;;;;;;;4.00;1.00;;;;;8.10;66.70;101022.44;5062824;28;61842;-77
2022/01/05 08:40:19;;;;;;;;;6.50;1.50;;;;;8.14;66.66;101032.22;5063145;28;61791;-77
2022/01/05 08:42:44;;;;;;;;;2.00;2.00;;;;;8.12;66.22;101033.84;5060503;28;63835;-77
2022/01/05 08:45:11;;;;;;;;;2.50;0.50;;;;;8.11;66.64;101043.41;5063188;28;62146;-76
2022/01/05 08:47:37;;;;;;;;;6.00;4.00;;;;;8.09;66.20;101028.44;5062576;28;61872;-76
2022/01/05 08:50:03;;;;;;;;;4.50;2.00;;;;;8.09;67.02;101031.06;5078406;27;61907;-77
2022/01/05 08:52:29;;;;;;;;;6.00;1.75;;;;;8.16;66.60;101047.22;5062022;28;61713;-77
2022/01/05 08:54:55;;;;;;;;;0.25;0.00;;;;;8.22;66.49;101043.13;5078154;28;61889;-77
2022/01/05 08:57:21;;;;;;;;;2.00;2.00;;;;;8.20;66.15;101045.66;5077718;27;61850;-79
2022/01/05 08:59:47;;;;;;;;;3.50;1.50;;;;;8.27;66.61;101037.38;5077471;28;61972;-79
2022/01/05 09:02:16;;;;;;;;;1.00;1.00;;;;;8.12;66.30;101049.53;5061477;28;61874;-79
2022/01/05 09:04:42;;;;;;;;;0.75;0.75;;;;;8.26;66.96;101046.00;5057156;28;61731;-79
2022/01/05 09:07:09;;;;;;;;;3.00;2.00;;;;;8.31;66.74;101051.50;5045362;28;61861;-79
2022/01/05 09:09:34;;;;;;;;;2.75;2.00;;;;;8.41;66.63;101055.59;5062238;28;61935;-78
2022/01/05 09:11:59;;;;;;;;;6.00;1.00;;;;;8.39;66.18;101060.69;5050644;28;63846;-78
2022/01/05 09:14:25;;;;;;;;;1.00;1.00;;;;;8.48;66.29;101066.47;5049299;28;61811;-78
2022/01/05 09:16:52;;;;;;;;;1.25;1.25;;;;;8.52;66.41;101063.22;5062210;28;62517;-79
2022/01/05 09:19:19;;;;;;;;;4.00;2.25;;;;;8.56;66.13;101073.06;5062420;28;61862;-79
2022/01/05 09:21:48;;;;;;;;;6.75;2.00;;;;;8.58;66.49;101068.81;5061644;28;62047;-76
2022/01/05 09:24:15;;;;;;;;;4.75;1.00;;;;;8.62;65.96;101066.41;5061936;28;61914;-78
2022/01/05 09:26:40;;;;;;;;;2.50;1.00;;;;;8.69;65.86;101063.28;5077133;28;61785;-77
2022/01/05 09:29:06;;;;;;;;;4.50;1.50;;;;;8.66;65.68;101073.59;5062266;28;61881;-78
2022/01/05 09:31:32;;;;;;;;;4.00;1.25;;;;;8.74;65.87;101074.91;5076796;28;65148;-78
2022/01/05 09:33:57;;;;;;;;;1.00;1.00;;;;;8.77;65.46;101089.09;5060570;28;61845;-78
2022/01/05 09:36:32;;;;;;;;;1.25;1.00;;;;;8.81;65.75;101077.09;5062161;28;61919;-78
2022/01/05 09:42:05;;;;;;;;;4.00;1.75;;;;;9.06;65.17;101099.38;5057108;28;62159;-79
2022/01/05 09:44:44;;;;;;;;;4.50;1.75;;;;;9.14;65.52;101112.06;5060215;28;61947;-80
2022/01/05 09:47:31;;;;;;;;;3.50;2.00;;;;;9.15;65.47;101115.63;5061975;28;61889;-79
2022/01/05 09:50:03;;;;;;;;;5.00;2.00;;;;;9.06;65.18;101116.00;5061943;28;62124;-77
2022/01/05 09:52:30;;;;;;;;;5.75;2.00;;;;;9.11;65.24;101121.50;5061574;28;61998;-80
2022/01/05 09:54:56;;;;;;;;;4.75;4.75;;;;;9.15;65.05;101121.75;5061868;28;62001;-80
2022/01/05 09:57:23;;;;;;;;;1.00;1.00;;;;;9.18;65.60;101119.28;5060387;28;61916;-78
2022/01/05 09:59:50;;;;;;;;;8.25;2.00;;;;;9.30;65.80;101132.16;5061399;28;61861;-77
2022/01/05 10:02:16;;;;;;;;;1.75;1.75;;;;;9.25;65.28;101128.38;5060420;28;62133;-76
2022/01/05 10:04:41;;;;;;;;;1.25;1.25;;;;;9.39;64.95;101139.63;5059756;28;61684;-76
2022/01/05 10:07:10;;;;;;;;;5.75;2.00;;;;;9.58;65.08;101137.19;5059838;28;62108;-76
2022/01/05 10:09:37;;;;;;;;;6.25;3.00;;;;;9.85;64.77;101128.97;5050469;28;61693;-76
2022/01/05 10:12:03;;;;;;;;;1.75;1.00;;;;;10.03;63.94;101129.94;5051547;28;62782;-75
2022/01/05 10:14:30;;;;;;;;;3.25;3.25;;;;;9.88;63.23;101129.16;5052463;28;61798;-75
2022/01/05 10:17:28;;;;;;;;;6.25;4.50;;;;;9.73;63.36;101144.97;5054470;28;62115;-76
2022/01/05 10:20:05;;;;;;;;;6.00;4.50;;;;;9.69;64.08;101135.16;5051603;28;62590;-75
2022/01/05 10:22:32;;;;;;;;;5.00;5.00;;;;;9.75;63.34;101147.69;5067178;28;63847;-75
2022/01/05 10:24:59;;;;;;;;;1.00;1.00;;;;;9.78;63.27;101139.97;5069311;28;62126;-75
2022/01/05 10:27:27;;;;;;;;;2.00;2.00;;;;;9.47;63.17;101153.13;5053481;28;61929;-76
2022/01/05 10:29:56;;;;;;;;;4.25;1.00;;;;;9.48;64.12;101152.34;5052137;28;61953;-76
2022/01/05 10:32:27;;;;;;;;;1.75;1.75;;;;;9.75;63.97;101145.06;5052056;28;64485;-75
2022/01/05 10:35:02;;;;;;;;;2.25;1.50;;;;;9.85;63.51;101144.72;5052557;28;61925;-76
2022/01/05 10:37:28;;;;;;;;;1.25;1.25;;;;;9.98;62.98;101143.63;5052636;28;61930;-75
2022/01/05 10:40:19;;;;;;;;;3.50;1.00;;;;;10.12;62.25;101154.88;5069508;28;62140;-76
2022/01/05 10:42:45;;;;;;;;;9.75;2.50;;;;;10.08;62.72;101148.53;5053433;28;62712;-76
2022/01/05 10:45:15;;;;;;;;;6.50;2.00;;;;;10.15;63.03;101149.75;5057816;28;61928;-75
2022/01/05 10:47:41;;;;;;;;;7.25;2.00;;;;;10.15;63.13;101145.41;5053619;28;61944;-76
2022/01/05 10:50:17;;;;;;;;;3.25;3.25;;;;;10.35;63.68;101153.47;5051223;28;62001;-75
2022/01/05 10:52:55;;;;;;;;;3.00;2.00;;;;;10.52;62.86;101162.16;5068989;28;65083;-76
2022/01/05 10:55:23;;;;;;;;;1.00;1.00;;;;;10.41;61.33;101162.56;5063500;28;62146;-74
2022/01/05 10:58:04;;;;;;;;;6.00;4.50;;;;;10.46;61.83;101160.16;5063142;28;61875;-75
2022/01/05 11:00:53;;;;;;;;;2.75;2.75;;;;;10.53;61.72;101170.13;5062258;28;62057;-76
2022/01/05 11:03:23;;;;;;;;;4.75;2.00;;;;;10.53;61.84;101156.13;5075937;28;63854;-76
2022/01/05 11:06:09;;;;;;;;;6.25;5.25;;;;;10.63;62.09;101156.66;5060618;28;61812;-75
2022/01/05 11:09:11;;;;;;;;;1.50;1.50;;;;;10.59;61.87;101152.06;5060097;28;62001;-75
2022/01/05 11:11:44;;;;;;;;;2.00;2.00;;;;;10.74;61.44;101151.03;5038747;28;62051;-76
2022/01/05 11:14:16;;;;;;;;;2.00;2.00;;;;;10.85;60.96;101161.22;5038946;28;62548;-76
2022/01/05 11:16:44;;;;;;;;;10.25;3.00;;;;;10.92;61.10;101162.44;5036577;28;62018;-75
2022/01/05 11:19:21;;;;;;;;;7.25;3.50;;;;;10.90;60.27;101166.72;5022162;28;61877;-76
2022/01/05 11:22:06;;;;;;;;;4.75;2.75;;;;;10.94;60.54;101167.78;5022715;28;62408;-76
2022/01/05 11:24:33;;;;;;;;;4.00;2.25;;;;;11.01;59.60;101161.97;5039517;28;62030;-75
2022/01/05 11:26:59;;;;;;;;;20.00;12.00;;;;;11.02;59.70;101164.69;5039552;28;61804;-75
2022/01/05 11:29:25;;;;;;;;;18.00;16.75;;;;;11.23;59.67;101175.34;5022851;28;61929;-75
2022/01/05 11:31:51;;;;;;;;;6.00;4.50;;;;;11.27;59.50;101173.75;5039616;28;61900;-75
2022/01/05 11:34:16;;;;;;;;;4.50;4.50;;;;;11.32;59.37;101166.09;5021137;28;62522;-75
2022/01/05 11:36:43;;;;;;;;;2.00;2.00;;;;;11.36;59.73;101168.03;5020023;28;62008;-76